Portada
METAR-TAF:

METAR-TAF

Aeroports :

Benarés, Índia

latitud: 25-27N, longitud: 082-52E, altitud: 81 m

Observació

L'informe es va fer fa 59 minuts, a les 20:30 UTC
Vent calma
Temperatura 17°C
Humitat 88%
Pressió 1014 hPa
Visibilitat: 2500 m
boirina

METAR: VEBN 142030Z 00000KT 2500 BR NSC 17/15 Q1014 NOSIG

Hora: 02:59 (21:29 UTC)

Pronòstic

L'informe es va fer fa 1 hora i 29 minuts, a les 20:00 UTC
Pronòstic vàlid del 14 a les 21 UTC al 15 a les 06 UTC
Vent kt del Nord
Visibilitat: 1500 m
boirina
Evolucionant progressivament
l' 15 a les 00 UTC al 15 a les 02 UTC
Visibilitat: 0800 m
Boira superficial, boira
Evolucionant progressivament
l' 15 a les 04 UTC al 15 a les 06 UTC
Vent 2 kt amb direcció variable
Visibilitat: 1500 m
Escasses núvols a una alçada de 2000 ft
Núvols disperses a una alçada de 10000 ft
boirina, calitja

TAF: VEBN 142000Z 1421/1506 00000KT 1500 BR NSC BECMG 1500/1502 0800 MIFG FG BECMG 1504/1506 VRB02KT 1500 BR HZ FEW020 SCT100

Observacions i pronòstics meteorològics de més de 4000 aeroports (METAR i TAF).

Les estacions disponibles són els punts grocs i vermells al mapa.

Posi el ratolí al punt desitjat per veure el nom de l'estació.

Feu clic per veure les observacions i els pronòstics meteorològics.

Per canviar el mapa: feu clic els botons verds amb una creu de color negre per apropar; al botó verd amb un guió per allunyar la imatge; o en les fletxes verdes per a mapes adjacents.


METAR-TAF: